sensor_id;sensor_type;location;lat;lon;timestamp;pressure;altitude;pressure_sealevel;temperature;humidity
82418;BME280;72059;53.734;10.260;2023-08-24T00:00:39;101364.06;;;17.32;81.90
82418;BME280;72059;53.734;10.260;2023-08-24T00:03:10;101359.72;;;17.32;81.98
82418;BME280;72059;53.734;10.260;2023-08-24T00:05:37;101359.72;;;17.32;81.99
82418;BME280;72059;53.734;10.260;2023-08-24T00:08:09;101364.06;;;17.32;82.07
82418;BME280;72059;53.734;10.260;2023-08-24T00:10:37;101361.45;;;17.32;82.17
82418;BME280;72059;53.734;10.260;2023-08-24T00:13:05;101363.63;;;17.31;82.37
82418;BME280;72059;53.734;10.260;2023-08-24T00:15:33;101366.23;;;17.31;82.24
82418;BME280;72059;53.734;10.260;2023-08-24T00:18:02;101362.31;;;17.31;82.30
82418;BME280;72059;53.734;10.260;2023-08-24T00:20:29;101356.19;;;17.30;82.41
82418;BME280;72059;53.734;10.260;2023-08-24T00:22:59;101351.38;;;17.28;82.48
82418;BME280;72059;53.734;10.260;2023-08-24T00:25:27;101353.58;;;17.29;82.50
82418;BME280;72059;53.734;10.260;2023-08-24T00:27:54;101359.61;;;17.26;82.55
82418;BME280;72059;53.734;10.260;2023-08-24T00:30:23;101352.61;;;17.24;82.68
82418;BME280;72059;53.734;10.260;2023-08-24T00:32:50;101353.88;;;17.22;82.76
82418;BME280;72059;53.734;10.260;2023-08-24T00:35:17;101355.17;;;17.19;82.83
82418;BME280;72059;53.734;10.260;2023-08-24T00:37:45;101355.90;;;17.10;83.04
82418;BME280;72059;53.734;10.260;2023-08-24T00:40:12;101349.08;;;16.94;83.44
82418;BME280;72059;53.734;10.260;2023-08-24T00:42:44;101346.27;;;16.82;83.99
82418;BME280;72059;53.734;10.260;2023-08-24T00:45:15;101348.64;;;16.69;84.45
82418;BME280;72059;53.734;10.260;2023-08-24T00:47:47;101349.77;;;16.58;84.83
82418;BME280;72059;53.734;10.260;2023-08-24T00:50:16;101351.39;;;16.52;85.16
82418;BME280;72059;53.734;10.260;2023-08-24T00:52:44;101346.16;;;16.52;85.34
82418;BME280;72059;53.734;10.260;2023-08-24T00:55:14;101347.08;;;16.55;85.31
82418;BME280;72059;53.734;10.260;2023-08-24T00:57:41;101348.04;;;16.59;85.12
82418;BME280;72059;53.734;10.260;2023-08-24T01:00:09;101348.86;;;16.58;85.01
82418;BME280;72059;53.734;10.260;2023-08-24T01:02:38;101351.45;;;16.55;85.08
82418;BME280;72059;53.734;10.260;2023-08-24T01:05:06;101348.77;;;16.52;85.23
82418;BME280;72059;53.734;10.260;2023-08-24T01:07:35;101349.98;;;16.47;85.33
82418;BME280;72059;53.734;10.260;2023-08-24T01:10:05;101351.16;;;16.41;85.45
82418;BME280;72059;53.734;10.260;2023-08-24T01:15:24;101353.48;;;16.24;85.97
82418;BME280;72059;53.734;10.260;2023-08-24T01:17:50;101358.50;;;16.14;86.25
82418;BME280;72059;53.734;10.260;2023-08-24T01:20:20;101366.64;;;16.08;86.60
82418;BME280;72059;53.734;10.260;2023-08-24T01:23:48;101359.97;;;16.01;86.91
82418;BME280;72059;53.734;10.260;2023-08-24T01:25:42;101363.81;;;15.97;87.21
82418;BME280;72059;53.734;10.260;2023-08-24T01:28:10;101360.17;;;15.91;87.45
82418;BME280;72059;53.734;10.260;2023-08-24T01:30:38;101364.02;;;15.87;87.53
82418;BME280;72059;53.734;10.260;2023-08-24T01:33:06;101365.17;;;15.80;87.77
82418;BME280;72059;53.734;10.260;2023-08-24T01:35:35;101370.25;;;15.74;87.98
82418;BME280;72059;53.734;10.260;2023-08-24T01:38:02;101362.37;;;15.71;88.18
82418;BME280;72059;53.734;10.260;2023-08-24T01:40:53;101362.27;;;15.66;88.33
82418;BME280;72059;53.734;10.260;2023-08-24T01:43:20;101364.77;;;15.62;88.43
82418;BME280;72059;53.734;10.260;2023-08-24T01:45:49;101369.00;;;15.57;88.53
82418;BME280;72059;53.734;10.260;2023-08-24T01:48:18;101373.22;;;15.51;88.63
82418;BME280;72059;53.734;10.260;2023-08-24T01:50:46;101371.86;;;15.48;88.83
82418;BME280;72059;53.734;10.260;2023-08-24T01:53:14;101363.92;;;15.44;89.01
82418;BME280;72059;53.734;10.260;2023-08-24T01:55:42;101362.98;;;15.40;89.11
82418;BME280;72059;53.734;10.260;2023-08-24T01:58:09;101364.63;;;15.36;89.16
82418;BME280;72059;53.734;10.260;2023-08-24T02:00:36;101352.31;;;15.31;89.25
82418;BME280;72059;53.734;10.260;2023-08-24T02:03:04;101359.53;;;15.23;89.20
82418;BME280;72059;53.734;10.260;2023-08-24T02:05:32;101361.08;;;15.15;89.19
82418;BME280;72059;53.734;10.260;2023-08-24T02:07:59;101366.61;;;15.10;89.37
82418;BME280;72059;53.734;10.260;2023-08-24T02:10:26;101366.89;;;15.04;89.45
82418;BME280;72059;53.734;10.260;2023-08-24T02:12:54;101359.35;;;14.98;89.55
82418;BME280;72059;53.734;10.260;2023-08-24T02:15:22;101363.14;;;14.93;89.58
82418;BME280;72059;53.734;10.260;2023-08-24T02:17:49;101352.13;;;14.86;89.57
82418;BME280;72059;53.734;10.260;2023-08-24T02:20:17;101352.89;;;14.82;89.61
82418;BME280;72059;53.734;10.260;2023-08-24T02:22:44;101349.67;;;14.76;89.80
82418;BME280;72059;53.734;10.260;2023-08-24T02:25:12;101348.65;;;14.71;89.83
82418;BME280;72059;53.734;10.260;2023-08-24T02:27:39;101341.59;;;14.67;89.93
82418;BME280;72059;53.734;10.260;2023-08-24T02:30:07;101342.36;;;14.62;90.01
82418;BME280;72059;53.734;10.260;2023-08-24T02:32:35;101336.61;;;14.58;90.04
82418;BME280;72059;53.734;10.260;2023-08-24T02:35:02;101336.96;;;14.55;90.02
82418;BME280;72059;53.734;10.260;2023-08-24T02:37:30;101342.93;;;14.50;90.14
82418;BME280;72059;53.734;10.260;2023-08-24T02:39:57;101347.61;;;14.48;90.25
82418;BME280;72059;53.734;10.260;2023-08-24T02:42:24;101348.01;;;14.46;90.36
82418;BME280;72059;53.734;10.260;2023-08-24T02:44:52;101341.91;;;14.45;90.54
82418;BME280;72059;53.734;10.260;2023-08-24T02:47:19;101348.38;;;14.44;90.68
82418;BME280;72059;53.734;10.260;2023-08-24T02:49:47;101344.02;;;14.43;90.68
82418;BME280;72059;53.734;10.260;2023-08-24T02:52:14;101339.66;;;14.42;90.69
82418;BME280;72059;53.734;10.260;2023-08-24T02:54:42;101338.26;;;14.38;90.70
82418;BME280;72059;53.734;10.260;2023-08-24T02:57:09;101337.77;;;14.36;90.75
82418;BME280;72059;53.734;10.260;2023-08-24T02:59:37;101336.46;;;14.36;90.82
82418;BME280;72059;53.734;10.260;2023-08-24T03:02:05;101332.96;;;14.35;90.90
82418;BME280;72059;53.734;10.260;2023-08-24T03:04:32;101326.84;;;14.33;90.88
82418;BME280;72059;53.734;10.260;2023-08-24T03:07:00;101324.24;;;14.33;90.90
82418;BME280;72059;53.734;10.260;2023-08-24T03:09:27;101323.84;;;14.35;91.00
82418;BME280;72059;53.734;10.260;2023-08-24T03:11:55;101326.91;;;14.36;91.05
82418;BME280;72059;53.734;10.260;2023-08-24T03:14:22;101329.05;;;14.35;91.03
82418;BME280;72059;53.734;10.260;2023-08-24T03:16:50;101330.36;;;14.35;91.17
82418;BME280;72059;53.734;10.260;2023-08-24T03:19:17;101323.84;;;14.35;91.20
82418;BME280;72059;53.734;10.260;2023-08-24T03:21:44;101319.98;;;14.37;91.32
82418;BME280;72059;53.734;10.260;2023-08-24T03:24:12;101318.68;;;14.37;91.35
82418;BME280;72059;53.734;10.260;2023-08-24T03:26:39;101316.08;;;14.37;91.35
82418;BME280;72059;53.734;10.260;2023-08-24T03:29:07;101318.68;;;14.37;91.48
82418;BME280;72059;53.734;10.260;2023-08-24T03:31:34;101313.88;;;14.36;91.55
82418;BME280;72059;53.734;10.260;2023-08-24T03:34:01;101316.08;;;14.37;91.63
82418;BME280;72059;53.734;10.260;2023-08-24T03:36:30;101312.17;;;14.37;91.67
82418;BME280;72059;53.734;10.260;2023-08-24T03:38:57;101313.02;;;14.36;91.59
82418;BME280;72059;53.734;10.260;2023-08-24T03:41:25;101310.38;;;14.34;91.49
82418;BME280;72059;53.734;10.260;2023-08-24T03:43:53;101304.67;;;14.32;91.39
82418;BME280;72059;53.734;10.260;2023-08-24T03:46:21;101308.53;;;14.30;91.41
82418;BME280;72059;53.734;10.260;2023-08-24T03:48:48;101307.13;;;14.27;91.43
82418;BME280;72059;53.734;10.260;2023-08-24T03:51:15;101315.36;;;14.26;91.49
82418;BME280;72059;53.734;10.260;2023-08-24T03:53:43;101310.09;;;14.23;91.46
82418;BME280;72059;53.734;10.260;2023-08-24T03:56:11;101303.49;;;14.20;91.41
82418;BME280;72059;53.734;10.260;2023-08-24T03:58:38;101312.56;;;14.19;91.30
82418;BME280;72059;53.734;10.260;2023-08-24T04:01:09;101305.06;;;14.15;91.19
82418;BME280;72059;53.734;10.260;2023-08-24T04:03:36;101308.47;;;14.12;91.14
82418;BME280;72059;53.734;10.260;2023-08-24T04:06:04;101315.83;;;14.11;91.20
82418;BME280;72059;53.734;10.260;2023-08-24T04:08:32;101315.78;;;14.10;91.26
82418;BME280;72059;53.734;10.260;2023-08-24T04:10:59;101310.97;;;14.08;91.26
82418;BME280;72059;53.734;10.260;2023-08-24T04:13:27;101316.94;;;14.05;91.29
82418;BME280;72059;53.734;10.260;2023-08-24T04:15:54;101316.39;;;14.01;91.22
82418;BME280;72059;53.734;10.260;2023-08-24T04:18:21;101313.70;;;13.98;91.16
82418;BME280;72059;53.734;10.260;2023-08-24T04:20:51;101315.39;;;13.96;91.13
82418;BME280;72059;53.734;10.260;2023-08-24T04:23:24;101317.90;;;13.93;91.16
82418;BME280;72059;53.734;10.260;2023-08-24T04:25:53;101309.23;;;13.92;91.22
82418;BME280;72059;53.734;10.260;2023-08-24T04:28:21;101312.64;;;13.91;91.32
82418;BME280;72059;53.734;10.260;2023-08-24T04:30:50;101310.53;;;13.92;91.48
82418;BME280;72059;53.734;10.260;2023-08-24T04:33:18;101312.74;;;13.94;91.61
82418;BME280;72059;53.734;10.260;2023-08-24T04:35:47;101310.64;;;13.97;91.57
82418;BME280;72059;53.734;10.260;2023-08-24T04:38:15;101306.38;;;13.99;91.46
82418;BME280;72059;53.734;10.260;2023-08-24T04:40:50;101308.13;;;14.00;91.33
82418;BME280;72059;53.734;10.260;2023-08-24T04:43:23;101306.88;;;14.01;91.25
82418;BME280;72059;53.734;10.260;2023-08-24T04:45:52;101302.17;;;14.04;91.37
82418;BME280;72059;53.734;10.260;2023-08-24T04:48:20;101298.36;;;14.07;91.40
82418;BME280;72059;53.734;10.260;2023-08-24T04:50:48;101306.67;;;14.10;91.36
82418;BME280;72059;53.734;10.260;2023-08-24T04:53:19;101305.32;;;14.08;91.26
82418;BME280;72059;53.734;10.260;2023-08-24T04:55:47;101313.98;;;14.07;91.28
82418;BME280;72059;53.734;10.260;2023-08-24T04:58:14;101315.28;;;14.07;91.38
82418;BME280;72059;53.734;10.260;2023-08-24T05:00:42;101320.94;;;14.08;91.48
82418;BME280;72059;53.734;10.260;2023-08-24T05:03:09;101313.57;;;14.08;91.46
82418;BME280;72059;53.734;10.260;2023-08-24T05:05:37;101317.48;;;14.09;91.50
82418;BME280;72059;53.734;10.260;2023-08-24T05:08:05;101326.73;;;14.14;91.77
82418;BME280;72059;53.734;10.260;2023-08-24T05:10:35;101331.23;;;14.20;91.98
82418;BME280;72059;53.734;10.260;2023-08-24T05:13:02;101332.67;;;14.24;92.02
82418;BME280;72059;53.734;10.260;2023-08-24T05:15:30;101325.81;;;14.28;91.99
82418;BME280;72059;53.734;10.260;2023-08-24T05:17:58;101322.40;;;14.29;91.83
82418;BME280;72059;53.734;10.260;2023-08-24T05:20:26;101327.89;;;14.40;91.83
82418;BME280;72059;53.734;10.260;2023-08-24T05:22:54;101324.13;;;14.46;91.81
82418;BME280;72059;53.734;10.260;2023-08-24T05:25:22;101330.81;;;14.52;91.70
82418;BME280;72059;53.734;10.260;2023-08-24T05:27:50;101329.24;;;14.59;91.57
82418;BME280;72059;53.734;10.260;2023-08-24T05:30:18;101328.97;;;14.64;91.46
82418;BME280;72059;53.734;10.260;2023-08-24T05:32:45;101333.55;;;14.75;91.36
82418;BME280;72059;53.734;10.260;2023-08-24T05:35:13;101338.11;;;14.82;91.30
82418;BME280;72059;53.734;10.260;2023-08-24T05:37:40;101345.70;;;14.90;91.20
82418;BME280;72059;53.734;10.260;2023-08-24T05:40:08;101341.95;;;14.97;91.08
82418;BME280;72059;53.734;10.260;2023-08-24T05:42:35;101340.41;;;15.05;90.92
82418;BME280;72059;53.734;10.260;2023-08-24T05:45:03;101346.24;;;15.12;90.76
82418;BME280;72059;53.734;10.260;2023-08-24T05:47:30;101342.50;;;15.20;90.50
82418;BME280;72059;53.734;10.260;2023-08-24T05:49:58;101337.03;;;15.27;90.26
82418;BME280;72059;53.734;10.260;2023-08-24T05:52:25;101332.42;;;15.34;90.04
82418;BME280;72059;53.734;10.260;2023-08-24T05:54:53;101340.03;;;15.44;89.79
82418;BME280;72059;53.734;10.260;2023-08-24T05:57:20;101344.11;;;15.52;89.64
82418;BME280;72059;53.734;10.260;2023-08-24T05:59:48;101342.55;;;15.60;89.46
82418;BME280;72059;53.734;10.260;2023-08-24T06:02:15;101337.47;;;15.66;89.30
82418;BME280;72059;53.734;10.260;2023-08-24T06:04:43;101340.67;;;15.74;89.02
82418;BME280;72059;53.734;10.260;2023-08-24T06:07:10;101333.89;;;15.82;88.53
82418;BME280;72059;53.734;10.260;2023-08-24T06:09:37;101327.09;;;15.90;87.79
82418;BME280;72059;53.734;10.260;2023-08-24T06:12:05;101321.63;;;15.99;87.85
82418;BME280;72059;53.734;10.260;2023-08-24T06:14:33;101327.51;;;16.09;87.58
82418;BME280;72059;53.734;10.260;2023-08-24T06:17:00;101333.75;;;16.17;86.98
82418;BME280;72059;53.734;10.260;2023-08-24T06:19:28;101332.14;;;16.24;86.50
82418;BME280;72059;53.734;10.260;2023-08-24T06:21:55;101331.85;;;16.32;86.09
82418;BME280;72059;53.734;10.260;2023-08-24T06:24:23;101334.18;;;16.41;85.53
82418;BME280;72059;53.734;10.260;2023-08-24T06:26:50;101330.03;;;16.52;85.45
82418;BME280;72059;53.734;10.260;2023-08-24T06:29:17;101326.30;;;16.62;84.79
82418;BME280;72059;53.734;10.260;2023-08-24T06:31:45;101323.39;;;16.70;84.16
82418;BME280;72059;53.734;10.260;2023-08-24T06:34:12;101311.73;;;16.78;83.85
82418;BME280;72059;53.734;10.260;2023-08-24T06:36:40;101308.55;;;16.94;83.55
82418;BME280;72059;53.734;10.260;2023-08-24T06:39:07;101307.93;;;17.09;82.93
82418;BME280;72059;53.734;10.260;2023-08-24T06:41:36;101301.16;;;17.23;81.99
82418;BME280;72059;53.734;10.260;2023-08-24T06:44:03;101300.83;;;17.31;81.33
82418;BME280;72059;53.734;10.260;2023-08-24T06:46:32;101300.97;;;17.42;80.60
82418;BME280;72059;53.734;10.260;2023-08-24T06:48:59;101302.84;;;17.51;79.92
82418;BME280;72059;53.734;10.260;2023-08-24T06:51:27;101296.48;;;17.65;79.47
82418;BME280;72059;53.734;10.260;2023-08-24T06:53:55;101292.30;;;17.79;77.87
82418;BME280;72059;53.734;10.260;2023-08-24T06:56:22;101295.36;;;17.80;77.10
82418;BME280;72059;53.734;10.260;2023-08-24T06:58:50;101293.66;;;17.82;77.20
82418;BME280;72059;53.734;10.260;2023-08-24T07:01:17;101296.76;;;17.86;77.33
82418;BME280;72059;53.734;10.260;2023-08-24T07:03:45;101289.41;;;17.92;77.33
82418;BME280;72059;53.734;10.260;2023-08-24T07:06:12;101288.14;;;17.95;77.20
82418;BME280;72059;53.734;10.260;2023-08-24T07:08:40;101281.66;;;18.03;77.29
82418;BME280;72059;53.734;10.260;2023-08-24T07:11:07;101274.81;;;18.13;76.21
82418;BME280;72059;53.734;10.260;2023-08-24T07:13:34;101277.05;;;18.20;75.78
82418;BME280;72059;53.734;10.260;2023-08-24T07:16:02;101288.07;;;18.29;75.72
82418;BME280;72059;53.734;10.260;2023-08-24T07:18:29;101289.44;;;18.33;75.41
82418;BME280;72059;53.734;10.260;2023-08-24T07:20:57;101288.22;;;18.44;75.12
82418;BME280;72059;53.734;10.260;2023-08-24T07:23:24;101278.67;;;18.49;74.57
82418;BME280;72059;53.734;10.260;2023-08-24T07:25:52;101279.98;;;18.49;74.33
82418;BME280;72059;53.734;10.260;2023-08-24T07:28:19;101280.05;;;18.59;73.51
82418;BME280;72059;53.734;10.260;2023-08-24T07:30:47;101277.92;;;18.65;72.54
82418;BME280;72059;53.734;10.260;2023-08-24T07:33:15;101286.27;;;18.70;70.56
82418;BME280;72059;53.734;10.260;2023-08-24T07:35:42;101283.70;;;18.75;70.59
82418;BME280;72059;53.734;10.260;2023-08-24T07:38:09;101289.05;;;18.89;70.42
82418;BME280;72059;53.734;10.260;2023-08-24T07:40:37;101289.55;;;18.98;69.46
82418;BME280;72059;53.734;10.260;2023-08-24T07:43:04;101289.59;;;19.06;68.94
82418;BME280;72059;53.734;10.260;2023-08-24T07:45:32;101279.52;;;19.05;68.21
82418;BME280;72059;53.734;10.260;2023-08-24T07:47:59;101269.88;;;18.98;68.67
82418;BME280;72059;53.734;10.260;2023-08-24T07:50:27;101281.34;;;19.08;68.71
82418;BME280;72059;53.734;10.260;2023-08-24T07:52:54;101272.23;;;19.20;68.51
82418;BME280;72059;53.734;10.260;2023-08-24T07:55:22;101271.88;;;19.33;67.76
82418;BME280;72059;53.734;10.260;2023-08-24T07:57:49;101276.72;;;19.42;67.99
82418;BME280;72059;53.734;10.260;2023-08-24T08:00:17;101264.96;;;19.54;66.65
82418;BME280;72059;53.734;10.260;2023-08-24T08:02:44;101267.16;;;19.55;66.36
82418;BME280;72059;53.734;10.260;2023-08-24T08:05:12;101257.55;;;19.61;66.19
82418;BME280;72059;53.734;10.260;2023-08-24T08:07:39;101260.25;;;19.78;65.22
82418;BME280;72059;53.734;10.260;2023-08-24T08:10:07;101269.03;;;19.90;64.26
82418;BME280;72059;53.734;10.260;2023-08-24T08:12:35;101263.34;;;19.95;63.71
82418;BME280;72059;53.734;10.260;2023-08-24T08:15:03;101256.38;;;20.00;63.55
82418;BME280;72059;53.734;10.260;2023-08-24T08:17:31;101250.70;;;20.10;62.75
82418;BME280;72059;53.734;10.260;2023-08-24T08:19:59;101252.91;;;20.11;62.67
82418;BME280;72059;53.734;10.260;2023-08-24T08:22:27;101243.70;;;20.09;62.87
82418;BME280;72059;53.734;10.260;2023-08-24T08:24:54;101248.52;;;20.07;62.85
82418;BME280;72059;53.734;10.260;2023-08-24T08:27:23;101250.70;;;20.10;63.21
82418;BME280;72059;53.734;10.260;2023-08-24T08:29:51;101247.23;;;20.22;63.18
82418;BME280;72059;53.734;10.260;2023-08-24T08:32:18;101244.18;;;20.34;62.32
82418;BME280;72059;53.734;10.260;2023-08-24T08:34:45;101246.36;;;20.37;62.48
82418;BME280;72059;53.734;10.260;2023-08-24T08:37:13;101248.13;;;20.34;62.65
82418;BME280;72059;53.734;10.260;2023-08-24T08:39:41;101250.76;;;20.37;62.79
82418;BME280;72059;53.734;10.260;2023-08-24T08:42:16;101249.88;;;20.36;62.09
82418;BME280;72059;53.734;10.260;2023-08-24T08:44:45;101252.94;;;20.39;61.21
82418;BME280;72059;53.734;10.260;2023-08-24T08:47:13;101246.81;;;20.46;61.55
82418;BME280;72059;53.734;10.260;2023-08-24T08:49:43;101242.45;;;20.51;61.49
82418;BME280;72059;53.734;10.260;2023-08-24T08:52:10;101242.44;;;20.62;61.27
82418;BME280;72059;53.734;10.260;2023-08-24T08:54:38;101243.73;;;20.73;60.60
82418;BME280;72059;53.734;10.260;2023-08-24T08:57:06;101240.66;;;20.88;59.64
82418;BME280;72059;53.734;10.260;2023-08-24T08:59:34;101240.66;;;21.05;59.01
82418;BME280;72059;53.734;10.260;2023-08-24T09:02:03;101242.78;;;21.21;57.74
82418;BME280;72059;53.734;10.260;2023-08-24T09:04:32;101233.55;;;21.34;56.53
82418;BME280;72059;53.734;10.260;2023-08-24T09:07:03;101231.30;;;21.44;54.58
82418;BME280;72059;53.734;10.260;2023-08-24T09:09:33;101229.13;;;21.45;55.67
82418;BME280;72059;53.734;10.260;2023-08-24T09:12:01;101227.32;;;21.55;55.75
82418;BME280;72059;53.734;10.260;2023-08-24T09:14:28;101229.48;;;21.60;55.76
82418;BME280;72059;53.734;10.260;2023-08-24T09:16:56;101229.05;;;21.59;55.69
82418;BME280;72059;53.734;10.260;2023-08-24T09:19:30;101228.59;;;21.61;55.65
82418;BME280;72059;53.734;10.260;2023-08-24T09:22:00;101223.31;;;21.64;55.57
82418;BME280;72059;53.734;10.260;2023-08-24T09:24:35;101215.83;;;21.76;54.79
82418;BME280;72059;53.734;10.260;2023-08-24T09:27:16;101224.05;;;21.98;55.33
82418;BME280;72059;53.734;10.260;2023-08-24T09:29:53;101230.92;;;22.20;53.88
82418;BME280;72059;53.734;10.260;2023-08-24T09:32:12;101230.33;;;22.38;53.24
82418;BME280;72059;53.734;10.260;2023-08-24T09:34:40;101227.06;;;22.64;52.87
82418;BME280;72059;53.734;10.260;2023-08-24T09:37:15;101225.89;;;22.94;52.93
82418;BME280;72059;53.734;10.260;2023-08-24T09:39:43;101228.59;;;23.28;52.05
82418;BME280;72059;53.734;10.260;2023-08-24T09:42:12;101232.81;;;23.45;50.21
82418;BME280;72059;53.734;10.260;2023-08-24T09:44:44;101231.23;;;23.65;49.84
82418;BME280;72059;53.734;10.260;2023-08-24T09:47:13;101232.75;;;23.83;49.29
82418;BME280;72059;53.734;10.260;2023-08-24T09:49:41;101236.26;;;24.16;49.11
82418;BME280;72059;53.734;10.260;2023-08-24T09:52:09;101233.91;;;24.77;48.25
82418;BME280;72059;53.734;10.260;2023-08-24T09:54:37;101234.67;;;25.31;47.05
82418;BME280;72059;53.734;10.260;2023-08-24T09:57:06;101238.19;;;25.74;45.71
82418;BME280;72059;53.734;10.260;2023-08-24T09:59:35;101242.80;;;26.43;44.46
82418;BME280;72059;53.734;10.260;2023-08-24T10:02:06;101231.19;;;26.81;43.87
82418;BME280;72059;53.734;10.260;2023-08-24T10:04:34;101216.80;;;27.23;43.39
82418;BME280;72059;53.734;10.260;2023-08-24T10:07:09;101216.39;;;28.09;42.47
82418;BME280;72059;53.734;10.260;2023-08-24T10:09:53;101213.67;;;28.52;40.98
82418;BME280;72059;53.734;10.260;2023-08-24T10:12:23;101205.98;;;28.02;40.40
82418;BME280;72059;53.734;10.260;2023-08-24T10:15:01;101215.02;;;28.11;40.89
82418;BME280;72059;53.734;10.260;2023-08-24T10:17:33;101216.87;;;28.87;39.68
82418;BME280;72059;53.734;10.260;2023-08-24T10:20:01;101205.94;;;30.44;36.56
82418;BME280;72059;53.734;10.260;2023-08-24T10:22:31;101190.33;;;31.25;34.61
82418;BME280;72059;53.734;10.260;2023-08-24T10:25:00;101186.25;;;32.29;32.99
82418;BME280;72059;53.734;10.260;2023-08-24T10:27:28;101189.48;;;33.37;31.50
82418;BME280;72059;53.734;10.260;2023-08-24T10:29:56;101180.90;;;34.09;29.83
82418;BME280;72059;53.734;10.260;2023-08-24T10:32:28;101181.23;;;34.65;29.27
82418;BME280;72059;53.734;10.260;2023-08-24T10:34:55;101182.55;;;35.23;27.78
82418;BME280;72059;53.734;10.260;2023-08-24T10:37:27;101195.05;;;34.73;28.62
82418;BME280;72059;53.734;10.260;2023-08-24T10:39:55;101180.81;;;34.56;29.25
82418;BME280;72059;53.734;10.260;2023-08-24T10:42:22;101161.83;;;35.18;28.22
82418;BME280;72059;53.734;10.260;2023-08-24T10:44:51;101143.92;;;35.79;26.98
82418;BME280;72059;53.734;10.260;2023-08-24T10:47:21;101136.83;;;36.11;26.88
82418;BME280;72059;53.734;10.260;2023-08-24T10:49:58;101132.74;;;36.45;26.10
82418;BME280;72059;53.734;10.260;2023-08-24T10:55:04;101133.46;;;36.28;26.45
82418;BME280;72059;53.734;10.260;2023-08-24T10:57:39;101157.41;;;36.51;26.38
82418;BME280;72059;53.734;10.260;2023-08-24T11:00:12;101161.31;;;36.73;25.34
82418;BME280;72059;53.734;10.260;2023-08-24T11:02:47;101154.42;;;36.69;25.00
82418;BME280;72059;53.734;10.260;2023-08-24T11:05:17;101138.64;;;36.63;25.09
82418;BME280;72059;53.734;10.260;2023-08-24T11:07:58;101138.19;;;36.76;25.40
82418;BME280;72059;53.734;10.260;2023-08-24T11:10:36;101136.18;;;36.73;25.84
82418;BME280;72059;53.734;10.260;2023-08-24T11:13:07;101136.93;;;36.10;26.06
82418;BME280;72059;53.734;10.260;2023-08-24T11:15:42;101141.90;;;35.83;26.57
82418;BME280;72059;53.734;10.260;2023-08-24T11:18:20;101138.31;;;35.42;27.13
82418;BME280;72059;53.734;10.260;2023-08-24T11:20:59;101129.19;;;35.64;27.27
82418;BME280;72059;53.734;10.260;2023-08-24T11:23:25;101118.41;;;35.85;25.94
82418;BME280;72059;53.734;10.260;2023-08-24T11:25:54;101105.92;;;35.16;27.12
82418;BME280;72059;53.734;10.260;2023-08-24T11:28:25;101098.68;;;34.67;28.23
82418;BME280;72059;53.734;10.260;2023-08-24T11:30:54;101092.54;;;33.76;28.73
82418;BME280;72059;53.734;10.260;2023-08-24T11:33:32;101086.65;;;33.45;29.33
82418;BME280;72059;53.734;10.260;2023-08-24T11:36:03;101082.83;;;33.73;29.37
82418;BME280;72059;53.734;10.260;2023-08-24T11:38:42;101074.58;;;34.07;29.38
82418;BME280;72059;53.734;10.260;2023-08-24T11:43:43;101076.85;;;34.06;29.23
82418;BME280;72059;53.734;10.260;2023-08-24T11:46:11;101080.63;;;34.40;28.56
82418;BME280;72059;53.734;10.260;2023-08-24T11:48:39;101082.28;;;34.35;28.27
82418;BME280;72059;53.734;10.260;2023-08-24T11:51:10;101076.91;;;34.28;28.47
82418;BME280;72059;53.734;10.260;2023-08-24T11:53:44;101069.93;;;33.80;29.12
82418;BME280;72059;53.734;10.260;2023-08-24T11:56:12;101069.77;;;33.43;29.96
82418;BME280;72059;53.734;10.260;2023-08-24T11:58:47;101063.75;;;33.24;30.20
82418;BME280;72059;53.734;10.260;2023-08-24T12:01:13;101052.84;;;32.46;30.64
82418;BME280;72059;53.734;10.260;2023-08-24T12:03:40;101050.70;;;31.92;31.86
82418;BME280;72059;53.734;10.260;2023-08-24T12:06:17;101048.34;;;31.60;32.12
82418;BME280;72059;53.734;10.260;2023-08-24T12:08:45;101036.31;;;31.32;32.83
82418;BME280;72059;53.734;10.260;2023-08-24T12:11:14;101023.32;;;31.15;33.23
82418;BME280;72059;53.734;10.260;2023-08-24T12:13:51;101018.44;;;31.06;33.40
82418;BME280;72059;53.734;10.260;2023-08-24T12:16:20;101007.95;;;30.73;33.32
82418;BME280;72059;53.734;10.260;2023-08-24T12:18:52;101003.90;;;30.64;34.32
82418;BME280;72059;53.734;10.260;2023-08-24T12:21:22;100999.81;;;30.46;33.97
82418;BME280;72059;53.734;10.260;2023-08-24T12:24:00;100996.89;;;30.42;34.69
82418;BME280;72059;53.734;10.260;2023-08-24T12:26:30;100991.97;;;30.43;34.05
82418;BME280;72059;53.734;10.260;2023-08-24T12:29:05;101004.69;;;30.47;33.22
82418;BME280;72059;53.734;10.260;2023-08-24T12:31:35;101011.55;;;30.52;34.00
82418;BME280;72059;53.734;10.260;2023-08-24T12:34:05;101013.97;;;30.48;33.43
82418;BME280;72059;53.734;10.260;2023-08-24T12:36:36;101004.41;;;30.23;33.70
82418;BME280;72059;53.734;10.260;2023-08-24T12:39:07;100998.56;;;30.05;33.82
82418;BME280;72059;53.734;10.260;2023-08-24T12:41:36;100991.02;;;29.94;34.00
82418;BME280;72059;53.734;10.260;2023-08-24T12:44:04;100995.38;;;29.86;33.59
82418;BME280;72059;53.734;10.260;2023-08-24T12:46:35;101000.83;;;29.72;34.55
82418;BME280;72059;53.734;10.260;2023-08-24T12:49:03;100996.89;;;29.71;35.05
82418;BME280;72059;53.734;10.260;2023-08-24T12:51:31;100994.58;;;29.73;35.27
82418;BME280;72059;53.734;10.260;2023-08-24T12:53:58;100992.31;;;29.85;34.95
82418;BME280;72059;53.734;10.260;2023-08-24T12:56:25;100986.63;;;29.82;35.23